createdAt,value
2022-08-20T00:00:08.330Z,27.93
2022-08-20T00:01:11.568Z,27.93
2022-08-20T00:02:14.578Z,27.94
2022-08-20T00:03:20.410Z,27.94
2022-08-20T00:04:24.490Z,27.95
2022-08-20T00:05:30.538Z,27.95
2022-08-20T00:06:34.013Z,27.95
2022-08-20T00:07:36.373Z,27.94
2022-08-20T00:08:39.761Z,27.93
2022-08-20T00:09:43.096Z,27.93
2022-08-20T00:10:49.014Z,27.92
2022-08-20T00:11:49.991Z,27.94
2022-08-20T00:12:52.276Z,27.94
2022-08-20T00:13:57.166Z,27.96
2022-08-20T00:15:00.989Z,27.98
2022-08-20T00:16:04.886Z,27.99
2022-08-20T00:17:07.661Z,28.00
2022-08-20T00:18:10.341Z,28.01
2022-08-20T00:19:14.637Z,28.01
2022-08-20T00:20:19.710Z,27.98
2022-08-20T00:21:23.270Z,27.98
2022-08-20T00:22:27.261Z,28.02
2022-08-20T00:23:30.430Z,28.03
2022-08-20T00:24:32.985Z,27.99
2022-08-20T00:25:35.782Z,27.99
2022-08-20T00:26:38.552Z,27.99
2022-08-20T00:27:43.067Z,27.97
2022-08-20T00:28:45.876Z,27.97
2022-08-20T00:29:48.092Z,27.96
2022-08-20T00:30:50.660Z,27.95
2022-08-20T00:31:52.776Z,27.94
2022-08-20T00:34:10.901Z,28.07
2022-08-20T00:35:15.980Z,27.96
2022-08-20T00:36:20.178Z,27.94
2022-08-20T00:37:23.091Z,27.93
2022-08-20T00:38:26.657Z,27.90
2022-08-20T00:39:30.958Z,27.91
2022-08-20T00:40:37.109Z,27.91
2022-08-20T00:41:39.430Z,27.91
2022-08-20T00:42:48.278Z,27.92
2022-08-20T00:44:03.820Z,27.92
2022-08-20T00:45:08.800Z,27.93
2022-08-20T00:47:31.952Z,28.05
2022-08-20T00:48:36.156Z,27.97
2022-08-20T00:49:38.392Z,27.96
2022-08-20T00:50:42.074Z,27.97
2022-08-20T00:51:50.804Z,27.99
2022-08-20T00:52:53.369Z,27.98
2022-08-20T00:53:59.980Z,27.96
2022-08-20T00:55:03.215Z,27.94
2022-08-20T00:56:06.150Z,27.94
2022-08-20T00:57:27.409Z,27.93
2022-08-20T00:58:32.211Z,27.94
2022-08-20T00:59:35.487Z,27.93
2022-08-20T01:00:40.180Z,27.91
2022-08-20T01:01:55.107Z,27.91
2022-08-20T01:02:47.786Z,27.90
2022-08-20T01:03:50.275Z,27.91
2022-08-20T01:04:53.553Z,27.91
2022-08-20T01:05:56.430Z,27.93
2022-08-20T01:07:01.251Z,27.94
2022-08-20T01:08:04.227Z,27.95
2022-08-20T01:09:08.147Z,27.96
2022-08-20T01:10:13.987Z,27.97
2022-08-20T01:11:18.188Z,27.96
2022-08-20T01:12:20.774Z,27.94
2022-08-20T01:13:23.050Z,27.96
2022-08-20T01:14:26.587Z,27.93
2022-08-20T01:15:31.022Z,27.91
2022-08-20T01:16:34.684Z,27.90
2022-08-20T01:17:36.846Z,27.89
2022-08-20T01:18:40.033Z,27.87
2022-08-20T01:21:00.430Z,27.95
2022-08-20T01:22:03.007Z,27.83
2022-08-20T01:23:09.036Z,27.81
2022-08-20T01:25:46.345Z,27.90
2022-08-20T01:26:49.096Z,27.78
2022-08-20T01:27:53.194Z,27.75
2022-08-20T01:29:01.592Z,27.75
2022-08-20T01:30:06.915Z,27.74
2022-08-20T01:32:26.607Z,27.84
2022-08-20T01:33:29.246Z,27.74
2022-08-20T01:34:31.660Z,27.74
2022-08-20T01:35:37.514Z,27.72
2022-08-20T01:37:57.996Z,27.82
2022-08-20T01:39:00.662Z,27.70
2022-08-20T01:40:04.567Z,27.68
2022-08-20T01:41:34.136Z,27.66
2022-08-20T01:42:38.145Z,27.65
2022-08-20T01:43:45.630Z,27.63
2022-08-20T01:44:50.581Z,27.64
2022-08-20T01:45:53.040Z,27.63
2022-08-20T01:46:57.573Z,27.63
2022-08-20T01:48:00.296Z,27.65
2022-08-20T01:50:23.814Z,27.74
2022-08-20T01:51:28.844Z,27.64
2022-08-20T01:52:44.351Z,27.64
2022-08-20T01:53:48.899Z,27.63
2022-08-20T01:54:52.054Z,27.63
2022-08-20T01:55:54.515Z,27.63
2022-08-20T01:57:00.767Z,27.64
2022-08-20T01:58:03.294Z,27.64
2022-08-20T01:59:05.652Z,27.64
2022-08-20T02:00:14.613Z,27.63
2022-08-20T02:02:32.916Z,27.69
2022-08-20T02:03:40.737Z,27.57
2022-08-20T02:04:43.105Z,27.55
2022-08-20T02:05:46.449Z,27.56
2022-08-20T02:06:56.271Z,27.55
2022-08-20T02:08:00.783Z,27.55
2022-08-20T02:09:03.558Z,27.54
2022-08-20T02:10:08.983Z,27.55
2022-08-20T02:11:11.566Z,27.55
2022-08-20T02:12:14.344Z,27.55
2022-08-20T02:13:16.798Z,27.51
2022-08-20T02:14:20.013Z,27.51
2022-08-20T02:15:30.771Z,27.55
2022-08-20T02:16:31.078Z,27.56
2022-08-20T02:17:33.685Z,27.56
2022-08-20T02:18:37.165Z,27.57
2022-08-20T02:19:45.242Z,27.57
2022-08-20T02:20:49.402Z,27.58
2022-08-20T02:21:54.154Z,27.59
2022-08-20T02:22:57.659Z,27.60
2022-08-20T02:24:00.252Z,27.57
2022-08-20T02:25:03.607Z,27.57
2022-08-20T02:26:07.261Z,27.58
2022-08-20T02:27:09.781Z,27.59
2022-08-20T02:28:13.255Z,27.60
2022-08-20T02:29:16.128Z,27.62
2022-08-20T02:30:28.226Z,27.62
2022-08-20T02:31:34.829Z,27.63
2022-08-20T02:32:35.105Z,27.64
2022-08-20T02:33:37.469Z,27.64
2022-08-20T02:34:41.587Z,27.66
2022-08-20T02:35:45.471Z,27.68
2022-08-20T02:36:48.870Z,27.67
2022-08-20T02:37:51.299Z,27.68
2022-08-20T02:38:53.720Z,27.68
2022-08-20T02:39:56.970Z,27.69
2022-08-20T02:41:01.174Z,27.69
2022-08-20T02:42:05.294Z,27.69
2022-08-20T02:43:08.797Z,27.70
2022-08-20T02:44:11.232Z,27.67
2022-08-20T02:45:18.984Z,27.67
2022-08-20T02:46:20.693Z,27.73
2022-08-20T02:47:23.076Z,27.74
2022-08-20T02:48:26.304Z,27.75
2022-08-20T02:49:29.071Z,27.76
2022-08-20T02:50:33.930Z,27.75
2022-08-20T02:51:36.459Z,27.76
2022-08-20T02:52:38.837Z,27.75
2022-08-20T02:53:43.506Z,27.76
2022-08-20T02:54:46.119Z,27.78
2022-08-20T02:55:48.592Z,27.79
2022-08-20T02:56:50.873Z,27.81
2022-08-20T02:57:58.909Z,27.81
2022-08-20T02:59:01.427Z,27.82
2022-08-20T03:00:07.452Z,27.82
2022-08-20T03:01:13.049Z,27.82
2022-08-20T03:02:15.754Z,27.82
2022-08-20T03:03:18.249Z,27.82
2022-08-20T03:04:21.809Z,27.84
2022-08-20T03:05:27.481Z,27.84
2022-08-20T03:06:31.876Z,27.84
2022-08-20T03:09:14.705Z,27.95
2022-08-20T03:10:18.158Z,27.84
2022-08-20T03:11:20.925Z,27.84
2022-08-20T03:12:23.466Z,27.84
2022-08-20T03:13:26.680Z,27.83
2022-08-20T03:14:29.348Z,27.83
2022-08-20T03:15:32.633Z,27.84
2022-08-20T03:16:35.072Z,27.83
2022-08-20T03:17:38.380Z,27.84
2022-08-20T03:18:44.329Z,27.84
2022-08-20T03:19:47.833Z,27.83
2022-08-20T03:20:52.123Z,27.81
2022-08-20T03:21:55.101Z,27.80
2022-08-20T03:22:58.385Z,27.81
2022-08-20T03:24:02.892Z,27.82
2022-08-20T03:25:07.822Z,27.84
2022-08-20T03:26:11.921Z,27.84
2022-08-20T03:27:15.272Z,27.86
2022-08-20T03:28:19.019Z,27.86
2022-08-20T03:29:22.690Z,27.87
2022-08-20T03:30:26.447Z,27.86
2022-08-20T03:31:28.766Z,27.86
2022-08-20T03:32:31.044Z,27.86
2022-08-20T03:33:34.040Z,27.86
2022-08-20T03:34:36.553Z,27.86
2022-08-20T03:35:38.846Z,27.87
2022-08-20T03:36:43.018Z,27.86
2022-08-20T03:37:45.759Z,27.89
2022-08-20T03:38:51.010Z,27.89
2022-08-20T03:39:53.318Z,27.90
2022-08-20T03:40:56.602Z,27.91
2022-08-20T03:41:59.643Z,27.92
2022-08-20T03:43:02.149Z,27.93
2022-08-20T03:44:04.879Z,27.94
2022-08-20T03:45:09.081Z,27.94
2022-08-20T03:46:23.111Z,27.96
2022-08-20T03:47:16.156Z,27.86
2022-08-20T03:48:19.555Z,27.86
2022-08-20T03:49:22.420Z,27.96
2022-08-20T03:50:28.531Z,27.96
2022-08-20T03:51:31.576Z,27.95
2022-08-20T03:52:36.714Z,27.94
2022-08-20T03:53:39.162Z,27.94
2022-08-20T03:54:42.110Z,27.94
2022-08-20T03:55:45.804Z,27.93
2022-08-20T03:56:51.241Z,27.92
2022-08-20T03:57:55.405Z,27.93
2022-08-20T03:58:58.574Z,27.91
2022-08-20T04:00:03.859Z,27.90
2022-08-20T04:01:12.628Z,27.90
2022-08-20T04:02:12.454Z,27.91
2022-08-20T04:03:15.340Z,27.91
2022-08-20T04:04:17.669Z,27.91
2022-08-20T04:05:20.221Z,27.92
2022-08-20T04:06:23.575Z,27.91
2022-08-20T04:07:26.053Z,27.92
2022-08-20T04:08:28.593Z,27.93
2022-08-20T04:09:30.952Z,27.93
2022-08-20T04:10:35.425Z,27.94
2022-08-20T04:11:51.346Z,27.94
2022-08-20T04:12:54.426Z,27.96
2022-08-20T04:13:57.802Z,27.97
2022-08-20T04:15:00.182Z,27.97
2022-08-20T04:16:05.341Z,27.98
2022-08-20T04:17:10.427Z,27.98
2022-08-20T04:18:13.236Z,27.99
2022-08-20T04:19:17.091Z,27.99
2022-08-20T04:20:22.425Z,28.00
2022-08-20T04:21:25.297Z,28.01
2022-08-20T04:22:29.645Z,28.01
2022-08-20T04:23:32.689Z,28.01
2022-08-20T04:24:35.124Z,28.01
2022-08-20T04:25:37.516Z,28.02
2022-08-20T04:26:42.129Z,28.01
2022-08-20T04:27:44.493Z,28.00
2022-08-20T04:28:47.461Z,28.01
2022-08-20T04:29:49.818Z,28.00
2022-08-20T04:30:53.412Z,28.00
2022-08-20T04:31:55.702Z,28.00
2022-08-20T04:32:58.640Z,28.01
2022-08-20T04:34:02.139Z,28.02
2022-08-20T04:35:05.572Z,28.02
2022-08-20T04:36:10.346Z,28.03
2022-08-20T04:37:16.967Z,28.04
2022-08-20T04:38:18.513Z,28.03
2022-08-20T04:39:20.942Z,28.03
2022-08-20T04:40:24.013Z,28.03
2022-08-20T04:41:27.486Z,28.04
2022-08-20T04:42:29.945Z,28.05
2022-08-20T04:43:34.924Z,28.05
2022-08-20T04:44:37.426Z,28.04
2022-08-20T04:45:39.718Z,28.03
2022-08-20T04:46:43.293Z,28.03
2022-08-20T04:47:46.573Z,28.02
2022-08-20T04:48:50.250Z,28.00
2022-08-20T04:49:53.028Z,27.99
2022-08-20T04:50:59.102Z,27.96
2022-08-20T04:52:03.436Z,27.91
2022-08-20T04:53:09.083Z,27.82
2022-08-20T04:54:11.582Z,27.75
2022-08-20T04:55:14.165Z,27.71
2022-08-20T04:56:18.373Z,27.62
2022-08-20T04:57:20.801Z,27.56
2022-08-20T04:59:38.524Z,27.65
2022-08-20T05:00:48.192Z,27.54
2022-08-20T05:01:50.551Z,27.53
2022-08-20T05:02:53.020Z,27.58
2022-08-20T05:03:55.703Z,27.62
2022-08-20T05:04:59.087Z,27.63
2022-08-20T05:06:01.745Z,27.65
2022-08-20T05:07:04.410Z,27.63
2022-08-20T05:08:19.954Z,27.56
2022-08-20T05:09:11.798Z,27.54
2022-08-20T05:10:16.909Z,27.55
2022-08-20T05:11:33.716Z,27.57
2022-08-20T05:12:23.700Z,27.64
2022-08-20T05:13:27.520Z,27.64
2022-08-20T05:14:29.936Z,27.67
2022-08-20T05:15:33.351Z,27.69
2022-08-20T05:16:37.453Z,27.70
2022-08-20T05:17:40.490Z,27.70
2022-08-20T05:18:42.996Z,27.71
2022-08-20T05:19:45.255Z,27.71
2022-08-20T05:20:48.178Z,27.71
2022-08-20T05:21:51.033Z,27.69
2022-08-20T05:22:54.116Z,27.68
2022-08-20T05:23:58.096Z,27.66
2022-08-20T05:25:00.413Z,27.58
2022-08-20T05:26:04.338Z,27.49
2022-08-20T05:27:07.725Z,27.44
2022-08-20T05:28:16.163Z,27.40
2022-08-20T05:29:18.482Z,27.36
2022-08-20T05:30:21.884Z,27.34
2022-08-20T05:32:44.505Z,27.36
2022-08-20T05:33:43.910Z,27.23
2022-08-20T05:34:47.129Z,27.19
2022-08-20T05:35:50.260Z,27.18
2022-08-20T05:36:52.946Z,27.21
2022-08-20T05:37:57.416Z,27.23
2022-08-20T05:39:00.692Z,27.26
2022-08-20T05:41:29.161Z,27.43
2022-08-20T05:42:27.894Z,27.34
2022-08-20T05:43:30.388Z,27.33
2022-08-20T05:44:34.250Z,27.31
2022-08-20T05:45:39.394Z,27.33
2022-08-20T05:46:44.109Z,27.34
2022-08-20T05:47:47.489Z,27.38
2022-08-20T05:48:51.892Z,27.41
2022-08-20T05:49:54.354Z,27.45
2022-08-20T05:50:56.931Z,27.47
2022-08-20T05:51:59.273Z,27.50
2022-08-20T05:53:02.178Z,27.54
2022-08-20T05:54:05.697Z,27.57
2022-08-20T05:55:09.557Z,27.59
2022-08-20T05:56:13.342Z,27.62
2022-08-20T05:57:18.584Z,27.64
2022-08-20T05:58:25.856Z,27.65
2022-08-20T05:59:28.317Z,27.68
2022-08-20T06:00:31.197Z,27.69
2022-08-20T06:01:35.039Z,27.71
2022-08-20T06:02:37.558Z,27.73
2022-08-20T06:03:39.826Z,27.76
2022-08-20T06:04:42.973Z,27.78
2022-08-20T06:05:46.207Z,27.76
2022-08-20T06:06:48.949Z,27.75
2022-08-20T06:07:54.825Z,27.76
2022-08-20T06:08:56.949Z,27.78
2022-08-20T06:10:00.100Z,27.80
2022-08-20T06:11:04.168Z,27.82
2022-08-20T06:12:07.418Z,27.83
2022-08-20T06:13:10.472Z,27.84
2022-08-20T06:14:14.908Z,27.86
2022-08-20T06:15:18.565Z,27.87
2022-08-20T06:16:21.272Z,27.90
2022-08-20T06:17:24.903Z,27.90
2022-08-20T06:18:28.921Z,27.92
2022-08-20T06:19:32.495Z,27.92
2022-08-20T06:20:36.866Z,27.94
2022-08-20T06:21:40.281Z,27.96
2022-08-20T06:22:44.592Z,27.97
2022-08-20T06:23:57.216Z,27.99
2022-08-20T06:24:52.861Z,28.01
2022-08-20T06:25:55.216Z,28.01
2022-08-20T06:26:59.082Z,28.02
2022-08-20T06:28:03.528Z,28.03
2022-08-20T06:29:06.329Z,28.04
2022-08-20T06:30:12.103Z,28.04
2022-08-20T06:31:14.515Z,28.05
2022-08-20T06:32:18.200Z,28.05
2022-08-20T06:33:21.896Z,28.05
2022-08-20T06:34:24.475Z,28.05
2022-08-20T06:35:26.716Z,28.06
2022-08-20T06:36:30.650Z,28.06
2022-08-20T06:37:34.413Z,28.07
2022-08-20T06:38:38.636Z,28.07
2022-08-20T06:39:42.027Z,28.07
2022-08-20T06:40:45.498Z,28.08
2022-08-20T06:41:47.979Z,28.08
2022-08-20T06:42:51.414Z,28.09
2022-08-20T06:43:53.960Z,28.10
2022-08-20T06:44:59.574Z,28.10
2022-08-20T06:46:03.160Z,28.10
2022-08-20T06:47:06.326Z,28.11
2022-08-20T06:48:11.414Z,28.13
2022-08-20T06:49:15.862Z,28.13
2022-08-20T06:50:23.186Z,28.14
2022-08-20T06:51:26.870Z,28.14
2022-08-20T06:52:51.695Z,28.14
2022-08-20T06:53:34.333Z,28.15
2022-08-20T06:54:37.000Z,28.16
2022-08-20T06:55:40.640Z,28.16
2022-08-20T06:56:45.456Z,28.17
2022-08-20T06:59:09.047Z,28.28
2022-08-20T07:00:15.269Z,28.18
2022-08-20T07:01:18.215Z,28.17
2022-08-20T07:02:20.762Z,28.17
2022-08-20T07:03:26.095Z,28.18
2022-08-20T07:04:28.449Z,28.18
2022-08-20T07:05:33.032Z,28.19
2022-08-20T07:06:36.759Z,28.17
2022-08-20T07:07:39.093Z,28.16
2022-08-20T07:08:41.903Z,28.12
2022-08-20T07:09:44.847Z,28.09
2022-08-20T07:10:47.717Z,28.09
2022-08-20T07:11:51.337Z,28.08
2022-08-20T07:12:54.723Z,28.06
2022-08-20T07:13:58.335Z,28.03
2022-08-20T07:15:03.857Z,28.02
2022-08-20T07:16:06.599Z,28.04
2022-08-20T07:17:11.383Z,28.04
2022-08-20T07:18:15.749Z,28.02
2022-08-20T07:19:20.162Z,28.02
2022-08-20T07:20:23.138Z,28.01
2022-08-20T07:21:26.018Z,27.99
2022-08-20T07:22:28.984Z,28.00
2022-08-20T07:23:31.260Z,27.98
2022-08-20T07:24:35.725Z,27.97
2022-08-20T07:25:40.212Z,27.97
2022-08-20T07:26:46.010Z,27.98
2022-08-20T07:27:49.354Z,28.00
2022-08-20T07:28:51.917Z,27.96
2022-08-20T07:29:55.664Z,28.00
2022-08-20T07:31:00.170Z,28.00
2022-08-20T07:32:07.139Z,28.00
2022-08-20T07:33:11.363Z,28.00
2022-08-20T07:34:13.716Z,27.99
2022-08-20T07:35:16.888Z,27.99
2022-08-20T07:36:20.966Z,27.99
2022-08-20T07:37:24.167Z,27.99
2022-08-20T07:38:27.163Z,27.98
2022-08-20T07:39:30.879Z,27.95
2022-08-20T07:40:35.823Z,27.94
2022-08-20T07:41:38.302Z,27.96
2022-08-20T07:42:41.723Z,27.97
2022-08-20T07:43:44.157Z,27.99
2022-08-20T07:44:46.542Z,28.00
2022-08-20T07:45:52.799Z,28.01
2022-08-20T07:46:59.501Z,28.03
2022-08-20T07:48:10.591Z,28.05
2022-08-20T07:49:13.196Z,28.04
2022-08-20T07:50:18.285Z,28.05
2022-08-20T07:51:21.200Z,28.04
2022-08-20T07:52:24.177Z,28.04
2022-08-20T07:53:30.241Z,28.05
2022-08-20T07:54:32.067Z,28.07
2022-08-20T07:55:34.421Z,28.07
2022-08-20T07:56:37.615Z,28.06
2022-08-20T07:58:54.134Z,28.04
2022-08-20T07:59:57.301Z,27.88
2022-08-20T08:01:00.727Z,27.81
2022-08-20T08:02:04.117Z,27.76
2022-08-20T08:03:06.735Z,27.75
2022-08-20T08:04:10.630Z,27.74
2022-08-20T08:05:13.613Z,27.73
2022-08-20T08:06:29.518Z,27.68
2022-08-20T08:07:23.576Z,27.63
2022-08-20T08:08:26.737Z,27.58
2022-08-20T08:09:29.345Z,27.57
2022-08-20T08:10:31.692Z,27.61
2022-08-20T08:11:35.669Z,27.63
2022-08-20T08:12:41.205Z,27.65
2022-08-20T08:13:43.513Z,27.64
2022-08-20T08:14:45.832Z,27.62
2022-08-20T08:15:48.414Z,27.57
2022-08-20T08:16:54.485Z,27.51
2022-08-20T08:18:10.403Z,27.48
2022-08-20T08:19:13.296Z,27.45
2022-08-20T08:20:15.988Z,27.42
2022-08-20T08:21:18.479Z,27.38
2022-08-20T08:22:20.943Z,27.32
2022-08-20T08:23:31.667Z,27.29
2022-08-20T08:24:28.681Z,27.29
2022-08-20T08:25:31.256Z,27.30
2022-08-20T08:26:36.553Z,27.32
2022-08-20T08:27:39.759Z,27.36
2022-08-20T08:28:42.296Z,27.39
2022-08-20T08:29:47.216Z,27.38
2022-08-20T08:30:50.340Z,27.36
2022-08-20T08:31:53.728Z,27.35
2022-08-20T08:32:57.969Z,27.31
2022-08-20T08:34:00.498Z,27.27
2022-08-20T08:35:06.812Z,27.21
2022-08-20T08:36:16.353Z,27.13
2022-08-20T08:37:18.901Z,27.03
2022-08-20T08:38:22.858Z,26.97
2022-08-20T08:39:25.367Z,26.94
2022-08-20T08:40:31.157Z,26.92
2022-08-20T08:41:41.409Z,26.88
2022-08-20T08:42:46.551Z,26.86
2022-08-20T08:43:52.077Z,26.85
2022-08-20T08:44:55.147Z,26.89
2022-08-20T08:46:04.411Z,26.96
2022-08-20T08:47:10.508Z,27.01
2022-08-20T08:48:18.568Z,27.07
2022-08-20T08:49:21.998Z,27.12
2022-08-20T08:51:51.942Z,27.29
2022-08-20T08:52:56.432Z,27.21
2022-08-20T08:54:03.457Z,27.20
2022-08-20T08:55:06.205Z,27.19
2022-08-20T08:56:10.866Z,27.18
2022-08-20T08:57:14.169Z,27.18
2022-08-20T08:58:17.811Z,27.16
2022-08-20T08:59:21.090Z,27.17
2022-08-20T09:00:25.756Z,27.17
2022-08-20T09:01:54.369Z,27.16
2022-08-20T09:02:32.786Z,27.15
2022-08-20T09:03:37.137Z,27.12
2022-08-20T09:04:40.001Z,27.10
2022-08-20T09:06:58.393Z,27.21
2022-08-20T09:08:02.929Z,27.14
2022-08-20T09:09:06.718Z,27.17
2022-08-20T09:10:11.075Z,27.21
2022-08-20T09:11:15.304Z,27.23
2022-08-20T09:12:21.496Z,27.27
2022-08-20T09:13:24.314Z,27.28
2022-08-20T09:14:26.775Z,27.32
2022-08-20T09:15:29.162Z,27.36
2022-08-20T09:16:33.128Z,27.39
2022-08-20T09:17:36.849Z,27.42
2022-08-20T09:18:39.112Z,27.43
2022-08-20T09:19:41.763Z,27.42
2022-08-20T09:20:45.501Z,27.41
2022-08-20T09:21:48.642Z,27.42
2022-08-20T09:22:51.515Z,27.40
2022-08-20T09:23:55.099Z,27.40
2022-08-20T09:26:29.288Z,27.41
2022-08-20T09:27:31.644Z,27.39
2022-08-20T09:28:35.083Z,27.33
2022-08-20T09:29:38.672Z,27.29
2022-08-20T09:30:43.037Z,27.23
2022-08-20T09:31:47.101Z,27.19
2022-08-20T09:32:51.410Z,27.17
2022-08-20T09:33:54.358Z,27.16
2022-08-20T09:34:56.778Z,27.18
2022-08-20T09:36:30.720Z,27.19
2022-08-20T09:37:17.713Z,27.18
2022-08-20T09:38:20.897Z,27.16
2022-08-20T09:39:23.711Z,27.14
2022-08-20T09:40:26.796Z,27.12
2022-08-20T09:41:31.037Z,27.10
2022-08-20T09:42:40.728Z,27.09
2022-08-20T09:43:40.804Z,27.10
2022-08-20T09:44:43.309Z,27.12
2022-08-20T09:45:45.479Z,27.12
2022-08-20T09:47:09.610Z,27.14
2022-08-20T09:48:11.901Z,27.14
2022-08-20T09:49:14.402Z,27.12
2022-08-20T09:50:17.448Z,27.11
2022-08-20T09:51:19.760Z,27.07
2022-08-20T09:52:27.726Z,27.06
2022-08-20T09:53:30.524Z,27.04
2022-08-20T09:54:33.466Z,27.02
2022-08-20T09:55:42.670Z,26.99
2022-08-20T09:56:45.832Z,26.97
2022-08-20T09:57:49.599Z,26.95
2022-08-20T09:58:53.466Z,26.94
2022-08-20T10:00:00.534Z,26.95
2022-08-20T10:01:14.027Z,26.98
2022-08-20T10:02:13.589Z,27.00
2022-08-20T10:03:16.445Z,27.00
2022-08-20T10:04:18.921Z,26.99
2022-08-20T10:05:21.201Z,26.97
2022-08-20T10:06:25.658Z,26.93
2022-08-20T10:07:28.472Z,26.93
2022-08-20T10:08:31.060Z,26.95
2022-08-20T10:09:34.684Z,27.00
2022-08-20T10:10:38.834Z,27.05
2022-08-20T10:11:41.381Z,27.10
2022-08-20T10:12:43.743Z,27.14
2022-08-20T10:13:46.125Z,27.18
2022-08-20T10:14:48.515Z,27.22
2022-08-20T10:15:51.466Z,27.24
2022-08-20T10:16:56.666Z,27.27
2022-08-20T10:18:03.063Z,27.30
2022-08-20T10:19:06.471Z,27.31
2022-08-20T10:20:11.302Z,27.32
2022-08-20T10:21:14.749Z,27.33
2022-08-20T10:22:17.701Z,27.36
2022-08-20T10:23:20.129Z,27.38
2022-08-20T10:24:22.928Z,27.40
2022-08-20T10:25:27.444Z,27.42
2022-08-20T10:26:31.671Z,27.42
2022-08-20T10:27:36.591Z,27.38
2022-08-20T10:28:39.263Z,27.35
2022-08-20T10:29:46.631Z,27.35
2022-08-20T10:30:46.836Z,27.37
2022-08-20T10:31:50.181Z,27.41
2022-08-20T10:32:52.807Z,27.42
2022-08-20T10:33:55.086Z,27.44
2022-08-20T10:34:57.353Z,27.47
2022-08-20T10:36:10.027Z,27.49
2022-08-20T10:37:16.898Z,27.50
2022-08-20T10:38:19.779Z,27.50
2022-08-20T10:39:22.388Z,27.49
2022-08-20T10:40:26.624Z,27.48
2022-08-20T10:41:29.138Z,27.44
2022-08-20T10:42:31.478Z,27.40
2022-08-20T10:43:33.939Z,27.32
2022-08-20T10:44:38.710Z,27.27
2022-08-20T10:45:42.245Z,27.24
2022-08-20T10:46:44.858Z,27.24
2022-08-20T10:47:47.144Z,27.21
2022-08-20T10:48:50.684Z,27.19
2022-08-20T10:49:54.048Z,27.20
2022-08-20T10:50:56.845Z,27.25
2022-08-20T10:51:59.729Z,27.30
2022-08-20T10:53:02.199Z,27.34
2022-08-20T10:54:08.214Z,27.37
2022-08-20T10:55:29.253Z,27.39
2022-08-20T10:56:32.282Z,27.42
2022-08-20T10:57:35.046Z,27.44
2022-08-20T10:58:39.475Z,27.46
2022-08-20T10:59:43.312Z,27.47
2022-08-20T11:00:46.515Z,27.46
2022-08-20T11:01:50.279Z,27.47
2022-08-20T11:02:52.909Z,27.48
2022-08-20T11:03:56.120Z,27.50
2022-08-20T11:04:59.740Z,27.52
2022-08-20T11:06:02.753Z,27.53
2022-08-20T11:07:17.717Z,27.57
2022-08-20T11:08:33.642Z,27.60
2022-08-20T11:09:24.340Z,27.61
2022-08-20T11:10:28.952Z,27.63
2022-08-20T11:11:31.342Z,27.64
2022-08-20T11:12:34.182Z,27.66
2022-08-20T11:13:36.609Z,27.63
2022-08-20T11:14:40.113Z,27.62
2022-08-20T11:15:42.814Z,27.64
2022-08-20T11:16:46.568Z,27.65
2022-08-20T11:17:50.181Z,27.67
2022-08-20T11:18:53.430Z,27.68
2022-08-20T11:19:56.308Z,27.69
2022-08-20T11:20:58.868Z,27.70
2022-08-20T11:22:01.426Z,27.70
2022-08-20T11:23:03.795Z,27.72
2022-08-20T11:24:07.075Z,27.71
2022-08-20T11:25:10.157Z,27.71
2022-08-20T11:26:17.167Z,27.72
2022-08-20T11:27:24.116Z,27.73
2022-08-20T11:28:31.839Z,27.74
2022-08-20T11:29:34.016Z,27.76
2022-08-20T11:30:36.091Z,27.75
2022-08-20T11:31:39.637Z,27.75
2022-08-20T11:32:42.073Z,27.76
2022-08-20T11:33:45.576Z,27.76
2022-08-20T11:34:48.717Z,27.77
2022-08-20T11:35:51.149Z,27.78
2022-08-20T11:36:53.627Z,27.79
2022-08-20T11:37:57.727Z,27.80
2022-08-20T11:39:00.273Z,27.80
2022-08-20T11:40:03.785Z,27.81
2022-08-20T11:41:06.431Z,27.80
2022-08-20T11:42:08.943Z,27.79
2022-08-20T11:43:15.243Z,27.78
2022-08-20T11:44:21.260Z,27.76
2022-08-20T11:45:21.593Z,27.75
2022-08-20T11:46:28.562Z,27.77
2022-08-20T11:47:31.192Z,27.80
2022-08-20T11:48:34.800Z,27.81
2022-08-20T11:49:37.348Z,27.81
2022-08-20T11:50:40.949Z,27.82
2022-08-20T11:51:49.468Z,27.83
2022-08-20T11:52:48.330Z,27.85
2022-08-20T11:53:51.737Z,27.85
2022-08-20T11:54:55.553Z,27.86
2022-08-20T11:55:57.876Z,27.87
2022-08-20T11:57:02.179Z,27.83
2022-08-20T11:58:05.261Z,27.74
2022-08-20T11:59:07.643Z,27.64
2022-08-20T12:00:13.536Z,27.57
2022-08-20T12:01:16.239Z,27.56
2022-08-20T12:02:20.283Z,27.57
2022-08-20T12:03:22.834Z,27.61
2022-08-20T12:04:25.371Z,27.62
2022-08-20T12:05:30.484Z,27.61
2022-08-20T12:06:34.612Z,27.59
2022-08-20T12:07:37.472Z,27.56
2022-08-20T12:08:40.042Z,27.50
2022-08-20T12:09:50.545Z,27.46
2022-08-20T12:10:48.673Z,27.43
2022-08-20T12:11:51.021Z,27.36
2022-08-20T12:12:54.719Z,27.32
2022-08-20T12:13:57.191Z,27.31
2022-08-20T12:14:59.586Z,27.32
2022-08-20T12:16:03.162Z,27.32
2022-08-20T12:17:14.597Z,27.29
2022-08-20T12:18:17.679Z,27.30
2022-08-20T12:19:20.007Z,27.34
2022-08-20T12:20:23.341Z,27.36
2022-08-20T12:21:28.661Z,27.36
2022-08-20T12:22:30.205Z,27.35
2022-08-20T12:23:32.540Z,27.31
2022-08-20T12:24:35.310Z,27.29
2022-08-20T12:25:38.208Z,27.32
2022-08-20T12:26:41.494Z,27.35
2022-08-20T12:27:58.373Z,27.40
2022-08-20T12:29:01.470Z,27.44
2022-08-20T12:30:10.906Z,27.48
2022-08-20T12:31:14.290Z,27.50
2022-08-20T12:32:17.371Z,27.50
2022-08-20T12:33:19.633Z,27.51
2022-08-20T12:34:22.076Z,27.53
2022-08-20T12:35:26.083Z,27.56
2022-08-20T12:36:29.561Z,27.55
2022-08-20T12:37:32.046Z,27.52
2022-08-20T12:38:34.556Z,27.49
2022-08-20T12:39:39.261Z,27.48
2022-08-20T12:40:42.765Z,27.48
2022-08-20T12:41:45.999Z,27.53
2022-08-20T12:42:48.912Z,27.56
2022-08-20T12:43:53.120Z,27.57
2022-08-20T12:44:56.285Z,27.57
2022-08-20T12:45:59.512Z,27.60
2022-08-20T12:47:13.882Z,27.63
2022-08-20T12:48:17.421Z,27.67
2022-08-20T12:49:20.906Z,27.69
2022-08-20T12:50:28.501Z,27.70
2022-08-20T12:51:29.715Z,27.72
2022-08-20T12:52:33.573Z,27.73
2022-08-20T12:53:35.889Z,27.74
2022-08-20T12:54:38.172Z,27.76
2022-08-20T12:55:40.670Z,27.78
2022-08-20T12:56:45.178Z,27.78
2022-08-20T12:57:49.594Z,27.80
2022-08-20T12:58:53.009Z,27.81
2022-08-20T13:01:09.978Z,27.92
2022-08-20T13:02:18.410Z,27.82
2022-08-20T13:03:17.334Z,27.82
2022-08-20T13:04:20.070Z,27.82
2022-08-20T13:05:23.430Z,27.83
2022-08-20T13:06:27.942Z,27.82
2022-08-20T13:07:31.119Z,27.81
2022-08-20T13:08:33.414Z,27.77
2022-08-20T13:09:40.433Z,27.70
2022-08-20T13:10:42.992Z,27.69
2022-08-20T13:11:45.805Z,27.68
2022-08-20T13:12:49.268Z,27.71
2022-08-20T13:13:52.745Z,27.75
2022-08-20T13:14:55.132Z,27.78
2022-08-20T13:15:57.837Z,27.78
2022-08-20T13:17:02.014Z,27.80
2022-08-20T13:18:06.593Z,27.80
2022-08-20T13:19:09.189Z,27.82
2022-08-20T13:20:14.177Z,27.81
2022-08-20T13:21:17.799Z,27.83
2022-08-20T13:22:20.600Z,27.84
2022-08-20T13:23:22.992Z,27.86
2022-08-20T13:24:25.813Z,27.85
2022-08-20T13:25:28.072Z,27.83
2022-08-20T13:26:31.219Z,27.80
2022-08-20T13:27:34.720Z,27.77
2022-08-20T13:28:37.170Z,27.74
2022-08-20T13:29:49.072Z,27.71
2022-08-20T13:30:51.605Z,27.70
2022-08-20T13:31:54.040Z,27.70
2022-08-20T13:32:57.164Z,27.67
2022-08-20T13:34:00.592Z,27.67
2022-08-20T13:35:03.801Z,27.69
2022-08-20T13:36:07.161Z,27.69
2022-08-20T13:37:14.434Z,27.69
2022-08-20T13:38:16.853Z,27.70
2022-08-20T13:39:19.253Z,27.70
2022-08-20T13:40:22.476Z,27.71
2022-08-20T13:41:26.077Z,27.71
2022-08-20T13:42:28.909Z,27.69
2022-08-20T13:43:31.251Z,27.69
2022-08-20T13:44:34.754Z,27.67
2022-08-20T13:45:37.181Z,27.64
2022-08-20T13:46:40.318Z,27.63
2022-08-20T13:47:42.578Z,27.64
2022-08-20T13:48:45.020Z,27.62
2022-08-20T13:49:47.896Z,27.61
2022-08-20T13:50:51.695Z,27.63
2022-08-20T13:51:56.206Z,27.65
2022-08-20T13:53:00.617Z,27.68
2022-08-20T13:54:05.121Z,27.68
2022-08-20T13:55:11.318Z,27.70
2022-08-20T13:56:14.553Z,27.70
2022-08-20T13:57:17.612Z,27.71
2022-08-20T13:58:20.956Z,27.72
2022-08-20T13:59:23.902Z,27.74
2022-08-20T14:00:32.256Z,27.74
2022-08-20T14:01:34.799Z,27.75
2022-08-20T14:02:38.975Z,27.75
2022-08-20T14:03:42.751Z,27.75
2022-08-20T14:04:46.056Z,27.75
2022-08-20T14:05:48.669Z,27.75
2022-08-20T14:06:52.012Z,27.75